sensor_id;sensor_type;location;lat;lon;timestamp;pressure;altitude;pressure_sealevel;temperature;humidity
6030;BME280;3043;42.682;23.376;2023-03-18T00:00:42;95328.75;;;2.36;100.00
6030;BME280;3043;42.682;23.376;2023-03-18T00:03:09;95333.78;;;2.30;100.00
6030;BME280;3043;42.682;23.376;2023-03-18T00:05:35;95325.59;;;2.56;100.00
6030;BME280;3043;42.682;23.376;2023-03-18T00:08:01;95322.16;;;2.53;100.00
6030;BME280;3043;42.682;23.376;2023-03-18T00:10:27;95326.38;;;2.52;100.00
6030;BME280;3043;42.682;23.376;2023-03-18T00:12:53;95322.78;;;2.32;100.00
6030;BME280;3043;42.682;23.376;2023-03-18T00:15:19;95327.59;;;2.10;100.00
6030;BME280;3043;42.682;23.376;2023-03-18T00:17:45;95324.03;;;1.97;100.00
6030;BME280;3043;42.682;23.376;2023-03-18T00:20:13;95321.50;;;1.99;100.00
6030;BME280;3043;42.682;23.376;2023-03-18T00:22:41;95315.56;;;2.01;100.00
6030;BME280;3043;42.682;23.376;2023-03-18T00:25:10;95318.22;;;2.09;100.00
6030;BME280;3043;42.682;23.376;2023-03-18T00:27:37;95314.81;;;2.07;100.00
6030;BME280;3043;42.682;23.376;2023-03-18T00:30:04;95309.41;;;1.85;100.00
6030;BME280;3043;42.682;23.376;2023-03-18T00:32:30;95303.44;;;1.83;100.00
6030;BME280;3043;42.682;23.376;2023-03-18T00:34:56;95303.16;;;1.62;100.00
6030;BME280;3043;42.682;23.376;2023-03-18T00:37:23;95295.41;;;1.56;100.00
6030;BME280;3043;42.682;23.376;2023-03-18T00:39:57;95290.94;;;1.42;100.00
6030;BME280;3043;42.682;23.376;2023-03-18T00:42:23;95285.91;;;1.48;100.00
6030;BME280;3043;42.682;23.376;2023-03-18T00:44:48;95283.50;;;1.58;100.00
6030;BME280;3043;42.682;23.376;2023-03-18T00:47:14;95283.50;;;1.58;100.00
6030;BME280;3043;42.682;23.376;2023-03-18T00:49:40;95278.63;;;1.73;100.00
6030;BME280;3043;42.682;23.376;2023-03-18T00:52:05;95276.88;;;1.69;100.00
6030;BME280;3043;42.682;23.376;2023-03-18T00:54:31;95278.56;;;1.70;100.00
6030;BME280;3043;42.682;23.376;2023-03-18T00:56:57;95270.22;;;1.80;100.00
6030;BME280;3043;42.682;23.376;2023-03-18T00:59:22;95268.50;;;1.79;100.00
6030;BME280;3043;42.682;23.376;2023-03-18T01:01:48;95265.91;;;1.76;100.00
6030;BME280;3043;42.682;23.376;2023-03-18T01:04:14;95265.09;;;1.77;100.00
6030;BME280;3043;42.682;23.376;2023-03-18T01:06:39;95264.34;;;1.88;100.00
6030;BME280;3043;42.682;23.376;2023-03-18T01:09:06;95260.16;;;1.93;100.00
6030;BME280;3043;42.682;23.376;2023-03-18T01:11:33;95253.38;;;1.95;100.00
6030;BME280;3043;42.682;23.376;2023-03-18T01:13:59;95256.81;;;1.97;100.00
6030;BME280;3043;42.682;23.376;2023-03-18T01:16:24;95258.31;;;1.82;100.00
6030;BME280;3043;42.682;23.376;2023-03-18T01:18:51;95256.66;;;1.84;100.00
6030;BME280;3043;42.682;23.376;2023-03-18T01:21:16;95251.47;;;1.78;100.00
6030;BME280;3043;42.682;23.376;2023-03-18T01:23:42;95254.72;;;1.65;100.00
6030;BME280;3043;42.682;23.376;2023-03-18T01:26:08;95253.69;;;1.53;100.00
6030;BME280;3043;42.682;23.376;2023-03-18T01:28:35;95258.94;;;1.65;100.00
6030;BME280;3043;42.682;23.376;2023-03-18T01:31:01;95254.75;;;1.68;100.00
6030;BME280;3043;42.682;23.376;2023-03-18T01:33:27;95253.09;;;1.73;100.00
6030;BME280;3043;42.682;23.376;2023-03-18T01:35:55;95259.94;;;1.74;100.00
6030;BME280;3043;42.682;23.376;2023-03-18T01:38:22;95258.25;;;1.76;100.00
6030;BME280;3043;42.682;23.376;2023-03-18T01:40:48;95249.75;;;1.74;100.00
6030;BME280;3043;42.682;23.376;2023-03-18T01:43:22;95256.50;;;1.72;100.00
6030;BME280;3043;42.682;23.376;2023-03-18T01:45:53;95249.50;;;1.56;100.00
6030;BME280;3043;42.682;23.376;2023-03-18T01:48:22;95244.28;;;1.50;100.00
6030;BME280;3043;42.682;23.376;2023-03-18T01:51:01;95254.63;;;1.59;100.00
6030;BME280;3043;42.682;23.376;2023-03-18T01:53:31;95244.41;;;1.56;100.00
6030;BME280;3043;42.682;23.376;2023-03-18T01:56:00;95245.97;;;1.48;100.00
6030;BME280;3043;42.682;23.376;2023-03-18T01:58:31;95238.69;;;1.14;100.00
6030;BME280;3043;42.682;23.376;2023-03-18T02:01:02;95239.50;;;1.12;100.00
6030;BME280;3043;42.682;23.376;2023-03-18T02:03:29;95236.69;;;0.95;100.00
6030;BME280;3043;42.682;23.376;2023-03-18T02:05:55;95222.97;;;0.87;100.00
6030;BME280;3043;42.682;23.376;2023-03-18T02:08:20;95233.06;;;0.81;100.00
6030;BME280;3043;42.682;23.376;2023-03-18T02:10:46;95232.19;;;0.79;100.00
6030;BME280;3043;42.682;23.376;2023-03-18T02:13:14;95228.22;;;0.98;100.00
6030;BME280;3043;42.682;23.376;2023-03-18T02:15:50;95225.75;;;1.02;100.00
6030;BME280;3043;42.682;23.376;2023-03-18T02:18:27;95229.09;;;0.98;100.00
6030;BME280;3043;42.682;23.376;2023-03-18T02:21:16;95228.38;;;1.08;100.00
6030;BME280;3043;42.682;23.376;2023-03-18T02:29:40;95232.28;;;0.85;100.00
6030;BME280;3043;42.682;23.376;2023-03-18T02:32:07;95236.31;;;0.71;100.00
6030;BME280;3043;42.682;23.376;2023-03-18T02:34:33;95232.94;;;0.72;100.00
6030;BME280;3043;42.682;23.376;2023-03-18T02:36:59;95231.06;;;0.62;100.00
6030;BME280;3043;42.682;23.376;2023-03-18T02:39:25;95231.41;;;0.83;100.00
6030;BME280;3043;42.682;23.376;2023-03-18T02:41:51;95228.75;;;0.76;100.00
6030;BME280;3043;42.682;23.376;2023-03-18T02:44:18;95223.38;;;0.59;100.00
6030;BME280;3043;42.682;23.376;2023-03-18T02:47:03;95229.25;;;0.55;100.00
6030;BME280;3043;42.682;23.376;2023-03-18T02:49:33;95230.28;;;0.66;100.00
6030;BME280;3043;42.682;23.376;2023-03-18T02:51:59;95231.16;;;0.68;100.00
6030;BME280;3043;42.682;23.376;2023-03-18T02:54:27;95226.97;;;0.72;100.00
6030;BME280;3043;42.682;23.376;2023-03-18T02:56:54;95224.50;;;0.76;100.00
6030;BME280;3043;42.682;23.376;2023-03-18T02:59:21;95232.56;;;0.51;100.00
6030;BME280;3043;42.682;23.376;2023-03-18T03:01:48;95233.06;;;0.32;100.00
6030;BME280;3043;42.682;23.376;2023-03-18T03:04:15;95225.63;;;0.44;100.00
6030;BME280;3043;42.682;23.376;2023-03-18T03:06:42;95227.63;;;0.60;100.00
6030;BME280;3043;42.682;23.376;2023-03-18T03:09:10;95223.88;;;0.40;100.00
6030;BME280;3043;42.682;23.376;2023-03-18T03:11:36;95232.31;;;0.36;100.00
6030;BME280;3043;42.682;23.376;2023-03-18T03:14:02;95228.09;;;0.38;100.00
6030;BME280;3043;42.682;23.376;2023-03-18T03:16:28;95232.41;;;0.42;100.00
6030;BME280;3043;42.682;23.376;2023-03-18T03:18:54;95225.38;;;0.29;100.00
6030;BME280;3043;42.682;23.376;2023-03-18T03:21:19;95222.63;;;0.17;100.00
6030;BME280;3043;42.682;23.376;2023-03-18T03:23:46;95221.09;;;0.27;100.00
6030;BME280;3043;42.682;23.376;2023-03-18T03:26:12;95228.50;;;0.13;100.00
6030;BME280;3043;42.682;23.376;2023-03-18T03:28:38;95235.41;;;0.20;100.00
6030;BME280;3043;42.682;23.376;2023-03-18T03:31:04;95227.84;;;0.25;100.00
6030;BME280;3043;42.682;23.376;2023-03-18T03:33:29;95233.69;;;0.19;100.00
6030;BME280;3043;42.682;23.376;2023-03-18T03:35:54;95233.00;;;0.28;100.00
6030;BME280;3043;42.682;23.376;2023-03-18T03:38:22;95235.63;;;0.32;100.00
6030;BME280;3043;42.682;23.376;2023-03-18T03:40:48;95231.34;;;0.30;100.00
6030;BME280;3043;42.682;23.376;2023-03-18T03:43:14;95235.44;;;0.23;100.00
6030;BME280;3043;42.682;23.376;2023-03-18T03:45:41;95230.31;;;0.20;100.00
6030;BME280;3043;42.682;23.376;2023-03-18T03:48:07;95238.84;;;0.22;100.00
6030;BME280;3043;42.682;23.376;2023-03-18T03:50:33;95237.41;;;0.36;100.00
6030;BME280;3043;42.682;23.376;2023-03-18T03:52:59;95233.97;;;0.34;100.00
6030;BME280;3043;42.682;23.376;2023-03-18T03:55:24;95240.09;;;0.44;100.00
6030;BME280;3043;42.682;23.376;2023-03-18T03:57:50;95238.19;;;0.34;100.00
6030;BME280;3043;42.682;23.376;2023-03-18T04:00:19;95241.09;;;0.53;100.00
6030;BME280;3043;42.682;23.376;2023-03-18T04:02:46;95244.50;;;0.55;100.00
6030;BME280;3043;42.682;23.376;2023-03-18T04:05:14;95242.09;;;0.63;100.00
6030;BME280;3043;42.682;23.376;2023-03-18T04:07:41;95246.41;;;0.65;100.00
6030;BME280;3043;42.682;23.376;2023-03-18T04:10:08;95247.31;;;0.70;100.00
6030;BME280;3043;42.682;23.376;2023-03-18T04:12:35;95248.16;;;0.69;100.00
6030;BME280;3043;42.682;23.376;2023-03-18T04:15:02;95263.59;;;0.78;100.00
6030;BME280;3043;42.682;23.376;2023-03-18T04:17:27;95254.47;;;0.91;100.00
6030;BME280;3043;42.682;23.376;2023-03-18T04:19:53;95252.63;;;0.84;100.00
6030;BME280;3043;42.682;23.376;2023-03-18T04:22:19;95263.69;;;0.84;100.00
6030;BME280;3043;42.682;23.376;2023-03-18T04:24:44;95262.31;;;1.04;100.00
6030;BME280;3043;42.682;23.376;2023-03-18T04:27:10;95277.38;;;0.89;100.00
6030;BME280;3043;42.682;23.376;2023-03-18T04:29:36;95274.03;;;0.93;100.00
6030;BME280;3043;42.682;23.376;2023-03-18T04:32:01;95276.28;;;0.75;100.00
6030;BME280;3043;42.682;23.376;2023-03-18T04:34:27;95284.59;;;0.65;100.00
6030;BME280;3043;42.682;23.376;2023-03-18T04:36:53;95283.59;;;0.57;100.00
6030;BME280;3043;42.682;23.376;2023-03-18T04:39:20;95287.34;;;0.77;100.00
6030;BME280;3043;42.682;23.376;2023-03-18T04:41:45;95289.22;;;0.87;100.00
6030;BME280;3043;42.682;23.376;2023-03-18T04:44:11;95292.66;;;0.89;100.00
6030;BME280;3043;42.682;23.376;2023-03-18T04:46:37;95301.22;;;0.94;100.00
6030;BME280;3043;42.682;23.376;2023-03-18T04:49:03;95299.84;;;1.14;100.00
6030;BME280;3043;42.682;23.376;2023-03-18T04:51:28;95304.53;;;1.41;100.00
6030;BME280;3043;42.682;23.376;2023-03-18T04:53:54;95295.63;;;1.71;100.00
6030;BME280;3043;42.682;23.376;2023-03-18T04:56:19;95296.34;;;2.29;100.00
6030;BME280;3043;42.682;23.376;2023-03-18T04:58:45;95301.81;;;2.62;100.00
6030;BME280;3043;42.682;23.376;2023-03-18T05:01:11;95302.34;;;3.19;100.00
6030;BME280;3043;42.682;23.376;2023-03-18T05:03:39;95300.97;;;3.63;100.00
6030;BME280;3043;42.682;23.376;2023-03-18T05:06:05;95301.06;;;3.75;100.00
6030;BME280;3043;42.682;23.376;2023-03-18T05:08:32;95309.88;;;4.28;100.00
6030;BME280;3043;42.682;23.376;2023-03-18T05:10:57;95313.44;;;4.75;100.00
6030;BME280;3043;42.682;23.376;2023-03-18T05:13:23;95304.13;;;5.48;100.00
6030;BME280;3043;42.682;23.376;2023-03-18T05:15:48;95310.13;;;5.85;100.00
6030;BME280;3043;42.682;23.376;2023-03-18T05:18:13;95310.88;;;6.27;100.00
6030;BME280;3043;42.682;23.376;2023-03-18T05:20:40;95308.09;;;6.74;100.00
6030;BME280;3043;42.682;23.376;2023-03-18T05:23:06;95305.13;;;7.32;100.00
6030;BME280;3043;42.682;23.376;2023-03-18T05:25:31;95302.91;;;7.92;100.00
6030;BME280;3043;42.682;23.376;2023-03-18T05:27:57;95309.31;;;8.41;100.00
6030;BME280;3043;42.682;23.376;2023-03-18T05:30:22;95301.91;;;8.82;100.00
6030;BME280;3043;42.682;23.376;2023-03-18T05:32:48;95303.09;;;9.21;100.00
6030;BME280;3043;42.682;23.376;2023-03-18T05:35:14;95313.13;;;9.95;100.00
6030;BME280;3043;42.682;23.376;2023-03-18T05:37:40;95310.41;;;10.51;100.00
6030;BME280;3043;42.682;23.376;2023-03-18T05:40:06;95315.63;;;10.91;93.81
6030;BME280;3043;42.682;23.376;2023-03-18T05:42:36;95316.75;;;11.55;85.03
6030;BME280;3043;42.682;23.376;2023-03-18T05:45:04;95324.22;;;12.05;79.59
6030;BME280;3043;42.682;23.376;2023-03-18T05:47:30;95320.41;;;12.18;74.14
6030;BME280;3043;42.682;23.376;2023-03-18T05:49:56;95330.38;;;11.66;70.94
6030;BME280;3043;42.682;23.376;2023-03-18T05:52:21;95336.72;;;11.12;72.86
6030;BME280;3043;42.682;23.376;2023-03-18T05:54:47;95337.00;;;11.00;74.11
6030;BME280;3043;42.682;23.376;2023-03-18T05:57:14;95336.50;;;10.39;76.82
6030;BME280;3043;42.682;23.376;2023-03-18T05:59:39;95346.22;;;10.72;74.03
6030;BME280;3043;42.682;23.376;2023-03-18T06:02:05;95343.44;;;10.37;77.79
6030;BME280;3043;42.682;23.376;2023-03-18T06:04:30;95342.50;;;10.39;79.11
6030;BME280;3043;42.682;23.376;2023-03-18T06:06:56;95344.84;;;10.53;82.10
6030;BME280;3043;42.682;23.376;2023-03-18T06:09:23;95333.91;;;10.83;78.94
6030;BME280;3043;42.682;23.376;2023-03-18T06:11:50;95336.28;;;10.94;79.32
6030;BME280;3043;42.682;23.376;2023-03-18T06:14:15;95334.50;;;11.35;75.12
6030;BME280;3043;42.682;23.376;2023-03-18T06:16:41;95339.59;;;10.56;78.29
6030;BME280;3043;42.682;23.376;2023-03-18T06:19:08;95335.28;;;10.99;79.65
6030;BME280;3043;42.682;23.376;2023-03-18T06:21:35;95339.69;;;11.73;72.94
6030;BME280;3043;42.682;23.376;2023-03-18T06:24:00;95337.94;;;12.10;74.81
6030;BME280;3043;42.682;23.376;2023-03-18T06:26:26;95347.81;;;12.62;69.92
6030;BME280;3043;42.682;23.376;2023-03-18T06:28:52;95341.34;;;13.38;64.72
6030;BME280;3043;42.682;23.376;2023-03-18T06:31:18;95333.94;;;14.07;61.05
6030;BME280;3043;42.682;23.376;2023-03-18T06:33:44;95333.13;;;14.57;57.65
6030;BME280;3043;42.682;23.376;2023-03-18T06:36:10;95329.03;;;14.99;55.93
6030;BME280;3043;42.682;23.376;2023-03-18T06:38:37;95323.34;;;15.57;52.11
6030;BME280;3043;42.682;23.376;2023-03-18T06:41:03;95320.97;;;15.96;50.37
6030;BME280;3043;42.682;23.376;2023-03-18T06:43:28;95318.72;;;16.29;49.51
6030;BME280;3043;42.682;23.376;2023-03-18T06:45:54;95325.03;;;16.85;48.58
6030;BME280;3043;42.682;23.376;2023-03-18T06:48:19;95317.16;;;17.25;44.87
6030;BME280;3043;42.682;23.376;2023-03-18T06:50:45;95326.47;;;17.12;44.95
6030;BME280;3043;42.682;23.376;2023-03-18T06:53:11;95326.81;;;17.23;44.91
6030;BME280;3043;42.682;23.376;2023-03-18T06:55:37;95323.34;;;17.61;43.81
6030;BME280;3043;42.682;23.376;2023-03-18T06:58:03;95327.69;;;16.65;45.11
6030;BME280;3043;42.682;23.376;2023-03-18T07:00:30;95317.03;;;16.49;44.77
6030;BME280;3043;42.682;23.376;2023-03-18T07:02:58;95311.88;;;16.68;45.41
6030;BME280;3043;42.682;23.376;2023-03-18T07:05:25;95319.19;;;16.60;45.35
6030;BME280;3043;42.682;23.376;2023-03-18T07:07:51;95317.16;;;16.25;45.85
6030;BME280;3043;42.682;23.376;2023-03-18T07:10:26;95320.06;;;16.79;45.74
6030;BME280;3043;42.682;23.376;2023-03-18T07:12:52;95318.75;;;15.64;47.69
6030;BME280;3043;42.682;23.376;2023-03-18T07:15:19;95319.75;;;15.61;48.95
6030;BME280;3043;42.682;23.376;2023-03-18T07:17:48;95315.31;;;16.07;48.04
6030;BME280;3043;42.682;23.376;2023-03-18T07:20:15;95317.22;;;16.23;46.37
6030;BME280;3043;42.682;23.376;2023-03-18T07:22:41;95318.31;;;14.84;49.44
6030;BME280;3043;42.682;23.376;2023-03-18T07:25:08;95315.59;;;14.62;52.57
6030;BME280;3043;42.682;23.376;2023-03-18T07:27:34;95314.41;;;15.18;50.58
6030;BME280;3043;42.682;23.376;2023-03-18T07:30:00;95323.31;;;14.65;51.75
6030;BME280;3043;42.682;23.376;2023-03-18T07:32:26;95317.03;;;15.41;49.10
6030;BME280;3043;42.682;23.376;2023-03-18T07:34:51;95326.41;;;15.90;48.88
6030;BME280;3043;42.682;23.376;2023-03-18T07:37:17;95317.34;;;15.32;49.18
6030;BME280;3043;42.682;23.376;2023-03-18T07:39:42;95315.72;;;15.74;49.76
6030;BME280;3043;42.682;23.376;2023-03-18T07:42:09;95315.31;;;15.85;47.95
6030;BME280;3043;42.682;23.376;2023-03-18T07:44:35;95320.38;;;15.22;49.28
6030;BME280;3043;42.682;23.376;2023-03-18T07:47:01;95318.94;;;15.13;51.17
6030;BME280;3043;42.682;23.376;2023-03-18T07:49:28;95326.47;;;14.98;51.98
6030;BME280;3043;42.682;23.376;2023-03-18T07:51:54;95318.84;;;15.39;51.36
6030;BME280;3043;42.682;23.376;2023-03-18T07:54:20;95320.19;;;16.57;48.61
6030;BME280;3043;42.682;23.376;2023-03-18T07:56:46;95319.03;;;17.03;48.03
6030;BME280;3043;42.682;23.376;2023-03-18T07:59:12;95320.59;;;17.64;46.27
6030;BME280;3043;42.682;23.376;2023-03-18T08:01:38;95320.16;;;18.27;44.35
6030;BME280;3043;42.682;23.376;2023-03-18T08:04:04;95314.72;;;17.59;44.17
6030;BME280;3043;42.682;23.376;2023-03-18T08:06:30;95315.19;;;18.74;43.12
6030;BME280;3043;42.682;23.376;2023-03-18T08:08:57;95310.84;;;17.29;43.88
6030;BME280;3043;42.682;23.376;2023-03-18T08:11:23;95313.31;;;17.32;44.71
6030;BME280;3043;42.682;23.376;2023-03-18T08:13:48;95322.44;;;17.62;44.62
6030;BME280;3043;42.682;23.376;2023-03-18T08:16:14;95321.13;;;18.60;43.21
6030;BME280;3043;42.682;23.376;2023-03-18T08:18:40;95328.34;;;19.06;42.38
6030;BME280;3043;42.682;23.376;2023-03-18T08:21:09;95316.44;;;19.33;41.01
6030;BME280;3043;42.682;23.376;2023-03-18T08:23:35;95321.06;;;19.11;40.69
6030;BME280;3043;42.682;23.376;2023-03-18T08:26:01;95324.03;;;18.88;41.96
6030;BME280;3043;42.682;23.376;2023-03-18T08:28:27;95320.66;;;18.86;41.59
6030;BME280;3043;42.682;23.376;2023-03-18T08:30:53;95319.84;;;19.67;39.76
6030;BME280;3043;42.682;23.376;2023-03-18T08:33:20;95314.06;;;19.44;40.27
6030;BME280;3043;42.682;23.376;2023-03-18T08:35:47;95320.69;;;19.83;40.61
6030;BME280;3043;42.682;23.376;2023-03-18T08:38:12;95319.44;;;20.21;39.59
6030;BME280;3043;42.682;23.376;2023-03-18T08:40:39;95310.16;;;20.45;39.42
6030;BME280;3043;42.682;23.376;2023-03-18T08:43:05;95318.66;;;21.37;37.32
6030;BME280;3043;42.682;23.376;2023-03-18T08:45:31;95312.53;;;21.37;36.57
6030;BME280;3043;42.682;23.376;2023-03-18T08:47:58;95311.03;;;21.33;36.96
6030;BME280;3043;42.682;23.376;2023-03-18T08:50:24;95308.84;;;21.53;36.80
6030;BME280;3043;42.682;23.376;2023-03-18T08:52:54;95300.88;;;21.83;36.11
6030;BME280;3043;42.682;23.376;2023-03-18T08:55:21;95319.22;;;21.84;35.81
6030;BME280;3043;42.682;23.376;2023-03-18T08:57:47;95313.56;;;21.90;34.76
6030;BME280;3043;42.682;23.376;2023-03-18T09:00:14;95317.94;;;22.30;34.27
6030;BME280;3043;42.682;23.376;2023-03-18T09:02:40;95318.56;;;22.48;33.83
6030;BME280;3043;42.682;23.376;2023-03-18T09:05:06;95313.97;;;22.91;33.51
6030;BME280;3043;42.682;23.376;2023-03-18T09:07:32;95310.56;;;22.89;32.71
6030;BME280;3043;42.682;23.376;2023-03-18T09:09:57;95316.00;;;23.12;32.15
6030;BME280;3043;42.682;23.376;2023-03-18T09:12:23;95305.69;;;22.83;32.22
6030;BME280;3043;42.682;23.376;2023-03-18T09:14:48;95313.53;;;22.97;31.43
6030;BME280;3043;42.682;23.376;2023-03-18T09:17:14;95315.88;;;22.35;32.10
6030;BME280;3043;42.682;23.376;2023-03-18T09:19:40;95315.44;;;21.88;32.40
6030;BME280;3043;42.682;23.376;2023-03-18T09:22:06;95326.63;;;21.92;31.60
6030;BME280;3043;42.682;23.376;2023-03-18T09:24:32;95322.69;;;21.57;31.70
6030;BME280;3043;42.682;23.376;2023-03-18T09:26:59;95325.97;;;21.32;32.37
6030;BME280;3043;42.682;23.376;2023-03-18T09:29:24;95331.63;;;21.82;31.02
6030;BME280;3043;42.682;23.376;2023-03-18T09:31:50;95323.50;;;21.15;31.43
6030;BME280;3043;42.682;23.376;2023-03-18T09:34:16;95318.75;;;21.36;31.21
6030;BME280;3043;42.682;23.376;2023-03-18T09:36:41;95321.38;;;21.36;31.02
6030;BME280;3043;42.682;23.376;2023-03-18T09:39:15;95311.88;;;21.33;31.44
6030;BME280;3043;42.682;23.376;2023-03-18T09:47:13;95310.09;;;18.35;35.12
6030;BME280;3043;42.682;23.376;2023-03-18T09:50:03;95314.16;;;17.14;36.83
6030;BME280;3043;42.682;23.376;2023-03-18T09:55:31;95303.47;;;17.00;38.62
6030;BME280;3043;42.682;23.376;2023-03-18T09:58:09;95308.44;;;17.43;38.72
6030;BME280;3043;42.682;23.376;2023-03-18T10:00:41;95304.25;;;18.13;36.73
6030;BME280;3043;42.682;23.376;2023-03-18T10:03:13;95310.63;;;18.43;36.35
6030;BME280;3043;42.682;23.376;2023-03-18T10:05:50;95311.69;;;18.90;35.47
6030;BME280;3043;42.682;23.376;2023-03-18T10:10:49;95315.34;;;17.07;36.74
6030;BME280;3043;42.682;23.376;2023-03-18T10:13:34;95309.03;;;16.11;37.91
6030;BME280;3043;42.682;23.376;2023-03-18T10:16:05;95308.75;;;15.96;39.24
6030;BME280;3043;42.682;23.376;2023-03-18T10:18:38;95310.31;;;15.57;38.63
6030;BME280;3043;42.682;23.376;2023-03-18T10:21:43;95302.28;;;15.17;39.60
6030;BME280;3043;42.682;23.376;2023-03-18T10:27:09;95306.50;;;15.44;39.24
6030;BME280;3043;42.682;23.376;2023-03-18T10:29:49;95297.59;;;15.04;40.03
6030;BME280;3043;42.682;23.376;2023-03-18T10:38:00;95300.03;;;16.79;37.10
6030;BME280;3043;42.682;23.376;2023-03-18T10:40:31;95291.75;;;16.50;36.10
6030;BME280;3043;42.682;23.376;2023-03-18T10:42:59;95293.78;;;16.63;35.91
6030;BME280;3043;42.682;23.376;2023-03-18T10:45:32;95299.59;;;15.86;35.99
6030;BME280;3043;42.682;23.376;2023-03-18T10:48:04;95295.56;;;14.64;36.25
6030;BME280;3043;42.682;23.376;2023-03-18T10:51:35;95289.84;;;14.02;37.86
6030;BME280;3043;42.682;23.376;2023-03-18T10:53:56;95288.91;;;14.31;37.19
6030;BME280;3043;42.682;23.376;2023-03-18T10:56:22;95281.59;;;13.64;38.52
6030;BME280;3043;42.682;23.376;2023-03-18T10:58:48;95282.63;;;13.31;38.50
6030;BME280;3043;42.682;23.376;2023-03-18T11:01:18;95299.78;;;12.46;40.05
6030;BME280;3043;42.682;23.376;2023-03-18T11:03:49;95285.81;;;12.19;40.46
6030;BME280;3043;42.682;23.376;2023-03-18T11:06:27;95286.00;;;11.78;40.53
6030;BME280;3043;42.682;23.376;2023-03-18T11:09:12;95285.25;;;10.97;43.80
6030;BME280;3043;42.682;23.376;2023-03-18T11:11:43;95273.91;;;10.63;46.99
6030;BME280;3043;42.682;23.376;2023-03-18T11:14:22;95286.59;;;10.75;48.01
6030;BME280;3043;42.682;23.376;2023-03-18T11:17:01;95285.31;;;10.94;46.92
6030;BME280;3043;42.682;23.376;2023-03-18T11:19:39;95283.13;;;11.16;46.58
6030;BME280;3043;42.682;23.376;2023-03-18T11:24:39;95276.06;;;11.95;47.00
6030;BME280;3043;42.682;23.376;2023-03-18T11:29:43;95268.47;;;11.88;43.10
6030;BME280;3043;42.682;23.376;2023-03-18T11:32:31;95278.06;;;12.18;44.06
6030;BME280;3043;42.682;23.376;2023-03-18T11:35:03;95273.69;;;12.18;43.77
6030;BME280;3043;42.682;23.376;2023-03-18T11:37:31;95279.53;;;11.94;43.27
6030;BME280;3043;42.682;23.376;2023-03-18T11:42:42;95268.16;;;10.90;44.79
6030;BME280;3043;42.682;23.376;2023-03-18T11:47:45;95276.75;;;10.92;45.26
6030;BME280;3043;42.682;23.376;2023-03-18T11:50:18;95268.75;;;11.41;44.95
6030;BME280;3043;42.682;23.376;2023-03-18T11:53:04;95273.09;;;11.75;44.28
6030;BME280;3043;42.682;23.376;2023-03-18T11:58:31;95256.16;;;11.59;45.14
6030;BME280;3043;42.682;23.376;2023-03-18T12:01:06;95263.03;;;11.63;45.02
6030;BME280;3043;42.682;23.376;2023-03-18T12:04:01;95273.97;;;11.39;45.46
6030;BME280;3043;42.682;23.376;2023-03-18T12:06:47;95265.72;;;11.22;46.81
6030;BME280;3043;42.682;23.376;2023-03-18T12:09:26;95268.63;;;11.45;48.06
6030;BME280;3043;42.682;23.376;2023-03-18T12:11:58;95258.38;;;12.09;46.75
6030;BME280;3043;42.682;23.376;2023-03-18T12:28:51;95261.56;;;10.74;46.96
6030;BME280;3043;42.682;23.376;2023-03-18T12:34:02;95270.59;;;11.34;47.00
6030;BME280;3043;42.682;23.376;2023-03-18T12:37:08;95246.81;;;11.17;47.28
6030;BME280;3043;42.682;23.376;2023-03-18T12:42:29;95248.59;;;11.15;45.80
6030;BME280;3043;42.682;23.376;2023-03-18T12:45:02;95253.31;;;10.98;46.45
6030;BME280;3043;42.682;23.376;2023-03-18T12:47:41;95255.28;;;10.87;46.59
6030;BME280;3043;42.682;23.376;2023-03-18T12:50:13;95261.97;;;10.12;46.94
6030;BME280;3043;42.682;23.376;2023-03-18T12:55:39;95259.94;;;10.70;46.32
6030;BME280;3043;42.682;23.376;2023-03-18T13:01:02;95235.22;;;11.33;45.27
6030;BME280;3043;42.682;23.376;2023-03-18T13:03:37;95253.44;;;11.30;44.06
6030;BME280;3043;42.682;23.376;2023-03-18T13:06:08;95253.84;;;11.12;43.78
6030;BME280;3043;42.682;23.376;2023-03-18T13:08:49;95251.28;;;11.11;44.57
6030;BME280;3043;42.682;23.376;2023-03-18T13:17:30;95256.25;;;10.83;44.54
6030;BME280;3043;42.682;23.376;2023-03-18T13:20:02;95253.41;;;10.54;45.29
6030;BME280;3043;42.682;23.376;2023-03-18T13:30:55;95245.47;;;10.19;45.14
6030;BME280;3043;42.682;23.376;2023-03-18T13:44:02;95266.56;;;10.43;43.40
6030;BME280;3043;42.682;23.376;2023-03-18T13:46:30;95260.31;;;10.52;43.28
6030;BME280;3043;42.682;23.376;2023-03-18T13:48:59;95251.44;;;10.63;42.78
6030;BME280;3043;42.682;23.376;2023-03-18T13:51:41;95249.47;;;10.76;42.59
6030;BME280;3043;42.682;23.376;2023-03-18T13:54:13;95245.97;;;10.77;42.38
6030;BME280;3043;42.682;23.376;2023-03-18T14:04:50;95240.06;;;10.31;43.49
6030;BME280;3043;42.682;23.376;2023-03-18T14:07:20;95243.69;;;10.21;42.77
6030;BME280;3043;42.682;23.376;2023-03-18T14:14:59;95238.75;;;10.09;43.18
6030;BME280;3043;42.682;23.376;2023-03-18T14:20:19;95231.25;;;10.39;42.51
6030;BME280;3043;42.682;23.376;2023-03-18T14:22:48;95228.88;;;10.70;41.93
6030;BME280;3043;42.682;23.376;2023-03-18T14:27:54;95241.25;;;10.96;41.89
6030;BME280;3043;42.682;23.376;2023-03-18T14:32:57;95236.53;;;10.76;42.37
6030;BME280;3043;42.682;23.376;2023-03-18T14:35:29;95241.00;;;10.68;43.07
6030;BME280;3043;42.682;23.376;2023-03-18T14:40:29;95231.47;;;10.70;41.94
6030;BME280;3043;42.682;23.376;2023-03-18T14:43:07;95235.84;;;10.66;41.80
6030;BME280;3043;42.682;23.376;2023-03-18T14:45:40;95236.78;;;10.64;42.44
6030;BME280;3043;42.682;23.376;2023-03-18T14:48:18;95235.63;;;10.77;41.77
6030;BME280;3043;42.682;23.376;2023-03-18T14:50:48;95240.88;;;10.74;40.51
6030;BME280;3043;42.682;23.376;2023-03-18T14:53:21;95244.72;;;10.55;40.46
6030;BME280;3043;42.682;23.376;2023-03-18T14:55:52;95249.28;;;10.42;41.10
6030;BME280;3043;42.682;23.376;2023-03-18T14:58:22;95252.28;;;10.23;40.69
6030;BME280;3043;42.682;23.376;2023-03-18T15:00:50;95249.03;;;10.12;41.10
6030;BME280;3043;42.682;23.376;2023-03-18T15:03:30;95247.41;;;10.08;41.65
6030;BME280;3043;42.682;23.376;2023-03-18T15:06:00;95255.81;;;10.19;41.31
6030;BME280;3043;42.682;23.376;2023-03-18T15:08:29;95255.03;;;10.14;41.69
6030;BME280;3043;42.682;23.376;2023-03-18T15:10:57;95257.41;;;9.77;43.57